createdAt,value
2023-05-03T00:01:41.473Z,17.84
2023-05-03T00:04:09.831Z,17.84
2023-05-03T00:06:38.295Z,17.84
2023-05-03T00:09:06.807Z,17.83
2023-05-03T00:11:35.714Z,17.85
2023-05-03T00:14:04.176Z,17.84
2023-05-03T00:16:32.597Z,17.84
2023-05-03T00:19:02.306Z,17.85
2023-05-03T00:21:31.763Z,17.87
2023-05-03T00:24:00.106Z,17.88
2023-05-03T00:26:29.674Z,17.88
2023-05-03T00:28:57.929Z,17.89
2023-05-03T00:31:26.252Z,17.89
2023-05-03T00:33:54.633Z,17.89
2023-05-03T00:36:24.324Z,17.88
2023-05-03T00:38:52.590Z,17.87
2023-05-03T00:41:21.235Z,17.89
2023-05-03T00:43:49.545Z,17.88
2023-05-03T00:46:18.144Z,17.88
2023-05-03T00:48:47.601Z,17.87
2023-05-03T00:51:18.678Z,17.86
2023-05-03T00:53:48.394Z,17.84
2023-05-03T00:56:22.961Z,17.85
2023-05-03T00:58:53.122Z,17.83
2023-05-03T01:01:22.067Z,17.84
2023-05-03T01:03:50.854Z,17.84
2023-05-03T01:06:32.298Z,17.84
2023-05-03T01:09:10.507Z,17.82
2023-05-03T01:11:48.904Z,17.80
2023-05-03T01:14:28.009Z,17.78
2023-05-03T01:17:05.547Z,17.78
2023-05-03T01:19:38.925Z,17.78
2023-05-03T01:22:23.654Z,17.76
2023-05-03T01:25:02.664Z,17.76
2023-05-03T01:27:30.996Z,17.76
2023-05-03T01:29:59.396Z,17.78
2023-05-03T01:32:37.628Z,17.78
2023-05-03T01:35:13.817Z,17.79
2023-05-03T01:37:43.470Z,17.82
2023-05-03T01:40:16.918Z,17.81
2023-05-03T01:42:45.597Z,17.83
2023-05-03T01:45:14.375Z,17.83
2023-05-03T01:47:42.869Z,17.85
2023-05-03T01:50:11.908Z,17.85
2023-05-03T01:52:40.174Z,17.84
2023-05-03T01:55:09.472Z,17.82
2023-05-03T01:57:39.185Z,17.81
2023-05-03T02:00:10.559Z,17.79
2023-05-03T02:02:38.909Z,17.79
2023-05-03T02:05:08.412Z,17.78
2023-05-03T02:07:36.750Z,17.77
2023-05-03T02:10:06.263Z,17.76
2023-05-03T02:12:34.966Z,17.76
2023-05-03T02:15:05.305Z,17.75
2023-05-03T02:17:34.223Z,17.75
2023-05-03T02:20:02.731Z,17.74
2023-05-03T02:22:31.224Z,17.74
2023-05-03T02:25:00.007Z,17.74
2023-05-03T02:27:28.360Z,17.74
2023-05-03T02:29:56.651Z,17.72
2023-05-03T02:32:26.384Z,17.71
2023-05-03T02:34:55.375Z,17.70
2023-05-03T02:37:23.810Z,17.72
2023-05-03T02:39:52.069Z,17.72
2023-05-03T02:42:20.409Z,17.73
2023-05-03T02:44:48.895Z,17.74
2023-05-03T02:47:17.257Z,17.74
2023-05-03T02:49:48.269Z,17.73
2023-05-03T02:52:16.565Z,17.76
2023-05-03T02:54:46.503Z,17.76
2023-05-03T02:57:14.850Z,17.77
2023-05-03T02:59:43.187Z,17.77
2023-05-03T03:02:11.527Z,17.79
2023-05-03T03:04:39.849Z,17.78
2023-05-03T03:07:09.558Z,17.80
2023-05-03T03:09:37.875Z,17.80
2023-05-03T03:12:06.786Z,17.82
2023-05-03T03:14:35.168Z,17.83
2023-05-03T03:17:03.809Z,17.84
2023-05-03T03:19:32.329Z,17.87
2023-05-03T03:22:00.710Z,17.87
2023-05-03T03:24:30.493Z,17.86
2023-05-03T03:26:58.938Z,17.86
2023-05-03T03:29:28.038Z,17.84
2023-05-03T03:31:56.501Z,17.84
2023-05-03T03:34:24.961Z,17.83
2023-05-03T03:36:53.522Z,17.83
2023-05-03T03:39:21.925Z,17.82
2023-05-03T03:41:51.886Z,17.83
2023-05-03T03:44:20.365Z,17.84
2023-05-03T03:46:48.861Z,17.86
2023-05-03T03:49:17.241Z,17.86
2023-05-03T03:51:45.703Z,17.87
2023-05-03T03:54:14.050Z,17.88
2023-05-03T03:56:42.322Z,17.85
2023-05-03T03:59:12.072Z,17.84
2023-05-03T04:01:40.516Z,17.83
2023-05-03T04:04:09.010Z,17.81
2023-05-03T04:06:37.788Z,17.79
2023-05-03T04:09:06.357Z,17.76
2023-05-03T04:11:35.054Z,17.74
2023-05-03T04:14:04.292Z,17.73
2023-05-03T04:16:34.062Z,17.72
2023-05-03T04:19:03.703Z,17.71
2023-05-03T04:21:32.387Z,17.73
2023-05-03T04:24:02.121Z,17.72
2023-05-03T04:26:31.755Z,17.74
2023-05-03T04:29:00.927Z,17.74
2023-05-03T04:31:30.118Z,17.76
2023-05-03T04:34:00.000Z,17.80
2023-05-03T04:36:30.012Z,17.84
2023-05-03T04:38:58.483Z,17.87
2023-05-03T04:41:26.940Z,17.91
2023-05-03T04:43:55.479Z,17.97
2023-05-03T04:46:23.849Z,18.03
2023-05-03T04:48:52.410Z,18.10
2023-05-03T04:51:22.153Z,18.16
2023-05-03T04:53:50.570Z,18.24
2023-05-03T04:56:20.576Z,18.32
2023-05-03T04:58:49.007Z,18.40
2023-05-03T05:01:17.323Z,18.48
2023-05-03T05:03:45.816Z,18.55
2023-05-03T05:06:14.286Z,18.59
2023-05-03T05:08:43.995Z,18.66
2023-05-03T05:11:14.633Z,18.75
2023-05-03T05:13:43.027Z,18.81
2023-05-03T05:16:11.337Z,18.87
2023-05-03T05:18:39.679Z,18.93
2023-05-03T05:21:08.038Z,18.99
2023-05-03T05:23:36.372Z,19.03
2023-05-03T05:26:06.307Z,19.01
2023-05-03T05:28:34.850Z,19.03
2023-05-03T05:31:03.357Z,19.01
2023-05-03T05:33:31.766Z,19.00
2023-05-03T05:36:00.539Z,18.98
2023-05-03T05:38:29.017Z,18.97
2023-05-03T05:40:57.381Z,18.96
2023-05-03T05:43:27.128Z,18.97
2023-05-03T05:45:55.628Z,18.99
2023-05-03T05:48:24.037Z,19.01
2023-05-03T05:50:52.449Z,19.06
2023-05-03T05:53:20.826Z,19.11
2023-05-03T05:55:49.152Z,19.13
2023-05-03T05:58:17.811Z,19.20
2023-05-03T06:00:49.373Z,19.24
2023-05-03T06:03:18.265Z,19.32
2023-05-03T06:05:46.709Z,19.41
2023-05-03T06:08:15.041Z,19.55
2023-05-03T06:10:44.098Z,19.69
2023-05-03T06:13:12.450Z,19.82
2023-05-03T06:15:41.669Z,19.95
2023-05-03T06:18:11.510Z,20.12
2023-05-03T06:20:40.124Z,20.29
2023-05-03T06:23:08.491Z,20.45
2023-05-03T06:25:37.229Z,20.60
2023-05-03T06:28:05.964Z,20.79
2023-05-03T06:30:35.261Z,20.91
2023-05-03T06:33:04.265Z,21.06
2023-05-03T06:35:34.490Z,21.19
2023-05-03T06:38:02.859Z,21.37
2023-05-03T06:40:31.280Z,21.47
2023-05-03T06:42:59.630Z,21.59
2023-05-03T06:45:28.013Z,21.71
2023-05-03T06:47:56.520Z,21.79
2023-05-03T06:50:24.945Z,21.79
2023-05-03T06:52:55.500Z,21.72
2023-05-03T06:55:23.925Z,21.68
2023-05-03T06:57:52.514Z,21.60
2023-05-03T07:00:23.125Z,21.57
2023-05-03T07:02:51.548Z,21.60
2023-05-03T07:05:20.199Z,21.60
2023-05-03T07:07:48.534Z,21.61
2023-05-03T07:10:18.342Z,21.56
2023-05-03T07:12:46.769Z,21.54
2023-05-03T07:15:15.729Z,21.56
2023-05-03T07:17:44.187Z,21.65
2023-05-03T07:20:14.002Z,21.78
2023-05-03T07:22:42.416Z,21.81
2023-05-03T07:25:12.421Z,21.83
2023-05-03T07:27:42.399Z,21.79
2023-05-03T07:30:11.870Z,21.81
2023-05-03T07:32:40.573Z,21.88
2023-05-03T07:35:11.045Z,21.93
2023-05-03T07:37:39.820Z,21.91
2023-05-03T07:40:10.243Z,21.89
2023-05-03T07:42:38.618Z,21.91
2023-05-03T07:45:10.575Z,21.92
2023-05-03T07:47:40.124Z,21.91
2023-05-03T07:50:09.621Z,21.92
2023-05-03T07:52:38.851Z,21.98
2023-05-03T07:55:09.462Z,22.12
2023-05-03T07:57:37.918Z,22.33
2023-05-03T08:00:12.477Z,22.51
2023-05-03T08:02:41.220Z,22.66
2023-05-03T08:05:11.531Z,22.74
2023-05-03T08:07:40.089Z,22.79
2023-05-03T08:10:09.754Z,22.76
2023-05-03T08:12:38.456Z,22.69
2023-05-03T08:15:11.565Z,22.66
2023-05-03T08:17:44.395Z,22.71
2023-05-03T08:20:15.667Z,22.76
2023-05-03T08:22:45.224Z,22.84
2023-05-03T08:25:13.739Z,22.83
2023-05-03T08:27:42.148Z,22.90
2023-05-03T08:30:12.785Z,23.04
2023-05-03T08:32:41.245Z,23.18
2023-05-03T08:35:11.022Z,23.27
2023-05-03T08:37:41.033Z,23.31
2023-05-03T08:40:12.114Z,23.36
2023-05-03T08:42:42.326Z,23.42
2023-05-03T08:45:15.947Z,23.49
2023-05-03T08:47:45.837Z,23.59
2023-05-03T08:50:16.150Z,23.62
2023-05-03T08:52:45.752Z,23.68
2023-05-03T08:55:14.566Z,23.77
2023-05-03T08:57:43.016Z,23.80
2023-05-03T09:00:15.827Z,23.77
2023-05-03T09:02:44.347Z,23.77
2023-05-03T09:05:35.936Z,23.79
2023-05-03T09:08:06.378Z,23.85
2023-05-03T09:10:38.290Z,23.78
2023-05-03T09:13:07.597Z,23.67
2023-05-03T09:15:38.119Z,23.63
2023-05-03T09:18:12.564Z,23.57
2023-05-03T09:20:51.460Z,23.62
2023-05-03T09:23:29.800Z,23.77
2023-05-03T09:25:59.110Z,23.93
2023-05-03T09:28:27.954Z,24.13
2023-05-03T09:31:11.372Z,24.30
2023-05-03T09:33:40.826Z,24.50
2023-05-03T09:36:11.041Z,24.68
2023-05-03T09:38:39.509Z,24.80
2023-05-03T09:41:07.978Z,24.92
2023-05-03T09:43:36.877Z,25.04
2023-05-03T09:46:14.196Z,25.12
2023-05-03T09:48:43.453Z,25.18
2023-05-03T09:51:13.040Z,25.21
2023-05-03T09:53:42.677Z,25.20
2023-05-03T09:56:13.736Z,25.20
2023-05-03T09:58:43.715Z,25.19
2023-05-03T10:01:16.263Z,25.10
2023-05-03T10:03:47.555Z,25.08
2023-05-03T10:06:36.864Z,25.04
2023-05-03T10:09:14.451Z,25.00
2023-05-03T10:11:49.301Z,24.97
2023-05-03T10:14:18.350Z,24.90
2023-05-03T10:16:53.978Z,24.83
2023-05-03T10:19:28.803Z,24.81
2023-05-03T10:22:05.085Z,24.88
2023-05-03T10:24:34.661Z,25.04
2023-05-03T10:27:03.572Z,25.22
2023-05-03T10:29:52.351Z,25.31
2023-05-03T10:32:33.561Z,25.43
2023-05-03T10:35:06.207Z,25.51
2023-05-03T10:37:36.281Z,25.54
2023-05-03T10:40:13.833Z,25.54
2023-05-03T10:42:50.944Z,25.67
2023-05-03T10:45:26.428Z,25.91
2023-05-03T10:48:20.888Z,26.09
2023-05-03T10:50:50.285Z,26.32
2023-05-03T10:53:40.114Z,26.37
2023-05-03T10:56:11.059Z,26.36
2023-05-03T10:58:47.659Z,26.25
2023-05-03T11:01:18.673Z,26.11
2023-05-03T11:03:53.602Z,26.02
2023-05-03T11:06:36.658Z,26.15
2023-05-03T11:09:07.686Z,26.60
2023-05-03T11:11:39.313Z,27.04
2023-05-03T11:14:08.918Z,27.53
2023-05-03T11:16:40.610Z,28.13
2023-05-03T11:19:10.473Z,28.84
2023-05-03T11:21:38.882Z,29.54
2023-05-03T11:24:08.285Z,30.02
2023-05-03T11:26:39.776Z,30.32
2023-05-03T11:29:10.853Z,30.52
2023-05-03T11:31:43.078Z,30.66
2023-05-03T11:34:14.597Z,30.77
2023-05-03T11:36:43.333Z,30.64
2023-05-03T11:39:14.492Z,30.24
2023-05-03T11:41:44.218Z,29.73
2023-05-03T11:44:17.567Z,29.21
2023-05-03T11:46:48.086Z,28.70
2023-05-03T11:49:20.758Z,28.27
2023-05-03T11:51:52.670Z,28.01
2023-05-03T11:54:26.983Z,27.84
2023-05-03T11:56:59.374Z,27.82
2023-05-03T11:59:40.464Z,27.76
2023-05-03T12:02:11.113Z,27.78
2023-05-03T12:04:43.615Z,27.68
2023-05-03T12:07:15.426Z,27.57
2023-05-03T12:09:52.509Z,27.41
2023-05-03T12:12:32.841Z,27.29
2023-05-03T12:15:07.875Z,27.20
2023-05-03T12:17:44.602Z,27.14
2023-05-03T12:22:57.633Z,27.05
2023-05-03T12:25:29.146Z,27.00
2023-05-03T12:28:17.785Z,26.92
2023-05-03T12:30:48.665Z,26.82
2023-05-03T12:33:21.705Z,26.71
2023-05-03T12:35:54.149Z,26.51
2023-05-03T12:38:24.777Z,26.31
2023-05-03T12:40:54.943Z,26.06
2023-05-03T12:43:23.694Z,25.83
2023-05-03T12:46:07.558Z,25.57
2023-05-03T12:48:40.721Z,25.28
2023-05-03T12:53:44.717Z,24.77
2023-05-03T12:56:15.772Z,24.54
2023-05-03T12:59:07.632Z,24.35
2023-05-03T13:02:41.081Z,24.13
2023-05-03T13:07:00.281Z,23.83
2023-05-03T13:09:38.511Z,23.75
2023-05-03T13:12:20.479Z,23.67
2023-05-03T13:14:49.836Z,23.63
2023-05-03T13:17:20.482Z,23.62
2023-05-03T13:19:49.437Z,23.60
2023-05-03T13:22:19.749Z,23.60
2023-05-03T13:24:49.086Z,23.62
2023-05-03T13:27:18.982Z,23.65
2023-05-03T13:29:49.366Z,23.68
2023-05-03T13:32:19.843Z,23.69
2023-05-03T13:34:48.198Z,23.70
2023-05-03T13:37:19.374Z,23.73
2023-05-03T13:39:47.957Z,23.77
2023-05-03T13:42:16.379Z,23.80
2023-05-03T13:44:47.801Z,23.81
2023-05-03T13:47:16.455Z,23.83
2023-05-03T13:49:44.825Z,23.87
2023-05-03T13:52:13.302Z,23.91
2023-05-03T13:54:43.494Z,23.94
2023-05-03T13:57:11.903Z,24.00
2023-05-03T13:59:40.372Z,24.05
2023-05-03T14:02:09.028Z,24.09
2023-05-03T14:04:37.536Z,24.10
2023-05-03T14:07:06.149Z,24.10
2023-05-03T14:09:39.340Z,24.10
2023-05-03T14:12:09.742Z,24.10
2023-05-03T14:14:38.203Z,24.11
2023-05-03T14:17:06.811Z,24.12
2023-05-03T14:19:37.379Z,24.10
2023-05-03T14:22:05.784Z,24.11
2023-05-03T14:24:34.235Z,24.12
2023-05-03T14:27:03.136Z,24.14
2023-05-03T14:29:33.154Z,24.14
2023-05-03T14:32:01.605Z,24.14
2023-05-03T14:34:30.037Z,24.15
2023-05-03T14:36:58.755Z,24.14
2023-05-03T14:39:27.377Z,24.13
2023-05-03T14:41:56.468Z,24.12
2023-05-03T14:44:25.254Z,24.10
2023-05-03T14:46:58.786Z,24.09
2023-05-03T14:49:27.252Z,24.07
2023-05-03T14:51:55.717Z,24.02
2023-05-03T14:54:24.167Z,23.95
2023-05-03T14:56:52.535Z,23.91
2023-05-03T14:59:20.956Z,23.88
2023-05-03T15:01:49.280Z,23.88
2023-05-03T15:04:19.040Z,23.89
2023-05-03T15:06:47.682Z,23.89
2023-05-03T15:09:16.096Z,23.88
2023-05-03T15:11:45.589Z,23.84
2023-05-03T15:14:14.009Z,23.83
2023-05-03T15:16:42.538Z,23.83
2023-05-03T15:19:10.974Z,23.83
2023-05-03T15:21:52.795Z,23.79
2023-05-03T15:24:21.949Z,23.80
2023-05-03T15:26:51.499Z,23.80
2023-05-03T15:29:19.898Z,23.83
2023-05-03T15:31:48.231Z,23.86
2023-05-03T15:34:16.579Z,23.88
2023-05-03T15:36:44.946Z,23.89
2023-05-03T15:39:14.838Z,23.86
2023-05-03T15:41:45.555Z,23.82
2023-05-03T15:44:15.043Z,23.77
2023-05-03T15:46:44.324Z,23.71
2023-05-03T15:49:13.047Z,23.67
2023-05-03T15:51:41.417Z,23.63
2023-05-03T15:54:09.762Z,23.62
2023-05-03T15:56:40.221Z,23.60
2023-05-03T15:59:08.774Z,23.59
2023-05-03T16:01:37.904Z,23.56
2023-05-03T16:04:07.714Z,23.56
2023-05-03T16:06:36.156Z,23.53
2023-05-03T16:09:06.531Z,23.50
2023-05-03T16:11:35.801Z,23.49
2023-05-03T16:14:09.340Z,23.47
2023-05-03T16:16:38.996Z,23.49
2023-05-03T16:19:08.863Z,23.50
2023-05-03T16:21:37.308Z,23.48
2023-05-03T16:24:06.407Z,23.46
2023-05-03T16:26:36.411Z,23.43
2023-05-03T16:29:06.166Z,23.42
2023-05-03T16:31:34.783Z,23.43
2023-05-03T16:34:03.796Z,23.43
2023-05-03T16:36:32.787Z,23.42
2023-05-03T16:39:01.225Z,23.42
2023-05-03T16:41:29.573Z,23.39
2023-05-03T16:43:57.913Z,23.35
2023-05-03T16:46:27.690Z,23.31
2023-05-03T16:48:56.178Z,23.24
2023-05-03T16:51:24.570Z,23.17
2023-05-03T16:53:53.464Z,23.11
2023-05-03T16:56:22.936Z,23.05
2023-05-03T16:58:51.856Z,23.00
2023-05-03T17:01:20.480Z,22.93
2023-05-03T17:03:50.354Z,22.87
2023-05-03T17:06:18.916Z,22.82
2023-05-03T17:08:47.427Z,22.75
2023-05-03T17:11:16.166Z,22.70
2023-05-03T17:13:44.613Z,22.65
2023-05-03T17:16:15.607Z,22.62
2023-05-03T17:18:44.391Z,22.57
2023-05-03T17:21:14.160Z,22.53
2023-05-03T17:23:42.861Z,22.49
2023-05-03T17:26:13.175Z,22.46
2023-05-03T17:28:42.229Z,22.43
2023-05-03T17:31:10.981Z,22.39
2023-05-03T17:33:39.329Z,22.35
2023-05-03T17:36:08.540Z,22.30
2023-05-03T17:38:38.253Z,22.25
2023-05-03T17:41:08.770Z,22.18
2023-05-03T17:43:38.243Z,22.13
2023-05-03T17:46:11.320Z,22.05
2023-05-03T17:48:42.714Z,21.99
2023-05-03T17:51:12.802Z,21.90
2023-05-03T17:53:43.566Z,21.82
2023-05-03T17:56:16.130Z,21.73
2023-05-03T17:58:47.347Z,21.65
2023-05-03T18:01:16.596Z,21.57
2023-05-03T18:03:45.225Z,21.50
2023-05-03T18:06:14.866Z,21.44
2023-05-03T18:08:44.721Z,21.36
2023-05-03T18:11:13.182Z,21.29
2023-05-03T18:13:41.934Z,21.21
2023-05-03T18:16:11.479Z,21.12
2023-05-03T18:18:40.246Z,21.02
2023-05-03T18:21:11.740Z,20.91
2023-05-03T18:23:41.169Z,20.81
2023-05-03T18:26:12.116Z,20.68
2023-05-03T18:28:40.950Z,20.59
2023-05-03T18:31:11.244Z,20.48
2023-05-03T18:33:42.644Z,20.40
2023-05-03T18:36:13.957Z,20.29
2023-05-03T18:38:43.432Z,20.19
2023-05-03T18:41:16.051Z,20.11
2023-05-03T18:43:46.695Z,20.02
2023-05-03T18:46:21.251Z,19.92
2023-05-03T18:48:51.095Z,19.86
2023-05-03T18:51:21.203Z,19.80
2023-05-03T18:53:51.027Z,19.73
2023-05-03T18:56:21.345Z,19.64
2023-05-03T18:58:50.427Z,19.59
2023-05-03T19:01:20.280Z,19.53
2023-05-03T19:03:49.162Z,19.48
2023-05-03T19:06:18.451Z,19.42
2023-05-03T19:08:47.498Z,19.35
2023-05-03T19:11:21.922Z,19.30
2023-05-03T19:13:52.593Z,19.25
2023-05-03T19:16:22.912Z,19.20
2023-05-03T19:18:51.409Z,19.17
2023-05-03T19:21:20.786Z,19.13
2023-05-03T19:23:50.015Z,19.08
2023-05-03T19:26:19.206Z,19.04
2023-05-03T19:28:48.175Z,18.99
2023-05-03T19:31:20.859Z,18.94
2023-05-03T19:33:51.947Z,18.91
2023-05-03T19:36:20.712Z,18.87
2023-05-03T19:38:51.538Z,18.85
2023-05-03T19:41:21.513Z,18.80
2023-05-03T19:43:53.005Z,18.77
2023-05-03T19:46:25.160Z,18.73
2023-05-03T19:48:54.524Z,18.70
2023-05-03T19:51:24.017Z,18.67
2023-05-03T19:53:53.293Z,18.63
2023-05-03T19:56:22.542Z,18.59
2023-05-03T19:58:51.808Z,18.56
2023-05-03T20:01:22.568Z,18.52
2023-05-03T20:03:54.204Z,18.49
2023-05-03T20:06:23.349Z,18.46
2023-05-03T20:08:52.414Z,18.42
2023-05-03T20:11:22.111Z,18.39
2023-05-03T20:13:51.149Z,18.35
2023-05-03T20:16:21.867Z,18.33
2023-05-03T20:18:52.833Z,18.28
2023-05-03T20:21:21.654Z,18.25
2023-05-03T20:23:50.612Z,18.23
2023-05-03T20:26:19.291Z,18.20
2023-05-03T20:28:47.675Z,18.17
2023-05-03T20:31:17.289Z,18.16
2023-05-03T20:33:46.052Z,18.13
2023-05-03T20:36:15.764Z,18.11
2023-05-03T20:38:44.295Z,18.08
2023-05-03T20:41:12.680Z,18.06
2023-05-03T20:43:41.337Z,18.03
2023-05-03T20:46:09.721Z,18.00
2023-05-03T20:48:38.310Z,17.97
2023-05-03T20:51:09.568Z,17.93
2023-05-03T20:53:39.438Z,17.89
2023-05-03T20:56:08.073Z,17.85
2023-05-03T20:58:36.653Z,17.80
2023-05-03T21:01:06.616Z,17.77
2023-05-03T21:03:35.817Z,17.74
2023-05-03T21:06:05.589Z,17.68
2023-05-03T21:08:34.106Z,17.66
2023-05-03T21:11:04.219Z,17.64
2023-05-03T21:13:35.650Z,17.61
2023-05-03T21:16:04.390Z,17.59
2023-05-03T21:18:33.239Z,17.58
2023-05-03T21:21:01.724Z,17.59
2023-05-03T21:23:30.127Z,17.58
2023-05-03T21:25:58.538Z,17.57
2023-05-03T21:28:30.467Z,17.54
2023-05-03T21:30:59.958Z,17.51
2023-05-03T21:33:28.745Z,17.50
2023-05-03T21:35:57.193Z,17.47
2023-05-03T21:38:25.676Z,17.43
2023-05-03T21:40:54.021Z,17.40
2023-05-03T21:43:22.402Z,17.36
2023-05-03T21:45:52.528Z,17.34
2023-05-03T21:48:23.519Z,17.31
2023-05-03T21:50:51.954Z,17.27
2023-05-03T21:53:20.760Z,17.23
2023-05-03T21:55:49.196Z,17.19
2023-05-03T21:58:17.634Z,17.15
2023-05-03T22:00:46.088Z,17.12
2023-05-03T22:03:16.093Z,17.09
2023-05-03T22:05:47.852Z,17.05
2023-05-03T22:08:18.186Z,17.01
2023-05-03T22:10:46.775Z,16.99
2023-05-03T22:13:15.289Z,16.96
2023-05-03T22:15:43.802Z,16.93
2023-05-03T22:18:12.215Z,16.89
2023-05-03T22:20:42.352Z,16.87
2023-05-03T22:23:10.846Z,16.82
2023-05-03T22:25:39.250Z,16.79
2023-05-03T22:28:07.583Z,16.77
2023-05-03T22:30:35.936Z,16.76
2023-05-03T22:33:04.443Z,16.74
2023-05-03T22:35:32.982Z,16.72
2023-05-03T22:38:03.726Z,16.71
2023-05-03T22:40:32.252Z,16.68
2023-05-03T22:43:00.821Z,16.66
2023-05-03T22:45:29.270Z,16.64
2023-05-03T22:47:57.827Z,16.62
2023-05-03T22:50:26.398Z,16.59
2023-05-03T22:52:54.828Z,16.57
2023-05-03T22:55:24.570Z,16.54
2023-05-03T22:57:52.872Z,16.51
2023-05-03T23:00:22.539Z,16.47
2023-05-03T23:02:51.009Z,16.45
2023-05-03T23:05:19.655Z,16.42
2023-05-03T23:07:48.066Z,16.39
2023-05-03T23:10:16.647Z,16.36
2023-05-03T23:12:46.441Z,16.32
2023-05-03T23:15:15.111Z,16.30
2023-05-03T23:17:43.448Z,16.27
2023-05-03T23:20:15.709Z,16.24
2023-05-03T23:22:44.099Z,16.24
2023-05-03T23:25:12.473Z,16.22
2023-05-03T23:27:40.831Z,16.22
2023-05-03T23:30:12.435Z,16.21
2023-05-03T23:32:41.618Z,16.24
2023-05-03T23:35:10.829Z,16.29
2023-05-03T23:37:39.116Z,16.36
2023-05-03T23:40:10.763Z,16.41
2023-05-03T23:42:39.700Z,16.51
2023-05-03T23:45:11.413Z,16.58
2023-05-03T23:47:39.796Z,16.68
2023-05-03T23:50:10.348Z,16.78
2023-05-03T23:52:38.920Z,16.87
2023-05-03T23:55:09.130Z,16.95
2023-05-03T23:57:37.541Z,17.03
